Time;durP1;ratioP1;P1;durP2;ratioP2;P2;SDS_P1;SDS_P2;PMS_P1;PMS_P2;Temp;Humidity;BMP_temperature;BMP_pressure;BME280_temperature;BME280_humidity;BME280_pressure;Samples;Min_cycle;Max_cycle;Signal;HPM_P1;HPM_P2
2022/10/27 00:01:34;;;;;;;10.80;4.90;;;;;;;11.31;95.33;100851.72;1718763;83;21023;-62
2022/10/27 00:04:04;;;;;;;6.47;4.50;;;;;;;11.31;95.41;100855.31;1712653;83;21052;-65
2022/10/27 00:06:34;;;;;;;7.22;4.75;;;;;;;11.31;95.30;100865.44;1708697;83;21012;-61
2022/10/27 00:09:03;;;;;;;9.93;4.70;;;;;;;11.30;95.43;100866.48;1715712;83;21051;-63
2022/10/27 00:11:32;;;;;;;9.38;4.87;;;;;;;11.30;95.50;100863.73;1717544;83;21106;-61
2022/10/27 00:14:03;;;;;;;8.98;4.75;;;;;;;11.31;95.58;100869.55;1716950;83;21022;-63
2022/10/27 00:16:33;;;;;;;9.73;4.62;;;;;;;11.33;95.54;100860.09;1714575;83;21043;-62
2022/10/27 00:19:04;;;;;;;10.58;5.00;;;;;;;11.34;95.50;100868.66;1715114;82;21047;-63
2022/10/27 00:21:36;;;;;;;8.90;5.10;;;;;;;11.33;95.50;100861.98;1714345;82;21046;-62
2022/10/27 00:24:06;;;;;;;8.70;4.60;;;;;;;11.33;95.44;100861.98;1716670;83;21077;-63
2022/10/27 00:26:36;;;;;;;7.35;4.42;;;;;;;11.33;95.41;100857.87;1713321;83;21050;-62
2022/10/27 00:29:06;;;;;;;11.38;5.05;;;;;;;11.34;95.36;100867.80;1716842;83;21071;-64
2022/10/27 00:31:35;;;;;;;8.13;5.00;;;;;;;11.34;95.31;100873.28;1714296;83;21051;-63
2022/10/27 00:34:05;;;;;;;10.65;5.47;;;;;;;11.33;95.36;100860.61;1715356;83;21051;-63
2022/10/27 00:36:35;;;;;;;8.75;5.05;;;;;;;11.34;95.32;100873.28;1714747;83;21042;-62
2022/10/27 00:39:05;;;;;;;8.63;5.00;;;;;;;11.34;95.26;100881.52;1718083;83;21086;-62
2022/10/27 00:41:37;;;;;;;8.00;4.80;;;;;;;11.34;95.20;100877.41;1720063;82;21038;-62
2022/10/27 00:44:37;;;;;;;11.00;5.37;;;;;;;11.34;95.13;100882.38;1716015;82;21133;-61
2022/10/27 00:47:23;;;;;;;11.60;5.10;;;;;;;11.32;95.09;100884.97;1714452;83;21031;-64
2022/10/27 00:50:16;;;;;;;7.83;4.70;;;;;;;11.29;95.06;100881.24;1717504;83;21070;-62
2022/10/27 00:52:55;;;;;;;10.68;4.75;;;;;;;11.28;95.05;100881.77;1717658;82;21019;-63
2022/10/27 00:55:30;;;;;;;9.33;5.17;;;;;;;11.27;95.14;100886.06;1715726;83;21042;-62
2022/10/27 00:58:04;;;;;;;10.03;5.17;;;;;;;11.29;95.15;100879.88;1716452;83;21011;-63
2022/10/27 01:00:35;;;;;;;11.65;4.62;;;;;;;11.28;95.10;100887.77;1720175;83;21058;-63
2022/10/27 01:03:05;;;;;;;7.47;4.70;;;;;;;11.29;95.17;100883.46;1718248;83;21050;-62
2022/10/27 01:05:35;;;;;;;7.90;4.60;;;;;;;11.32;95.12;100889.09;1715692;83;21517;-61
2022/10/27 01:08:05;;;;;;;9.08;5.17;;;;;;;11.31;94.99;100892.88;1715759;83;21046;-63
2022/10/27 01:10:33;;;;;;;7.22;4.72;;;;;;;11.30;95.02;100893.91;1717919;83;21039;-61
2022/10/27 01:13:02;;;;;;;8.18;4.53;;;;;;;11.28;95.01;100896.85;1713255;83;21514;-63
2022/10/27 01:15:37;;;;;;;7.30;4.62;;;;;;;11.28;94.96;100900.96;1692670;83;21703;-62
2022/10/27 01:18:41;;;;;;;9.68;4.97;;;;;;;11.27;94.86;100902.01;1719166;83;21536;-63
2022/10/27 01:21:52;;;;;;;7.58;5.17;;;;;;;11.24;94.80;100902.91;1676402;83;21048;-62
2022/10/27 01:24:46;;;;;;;7.87;4.25;;;;;;;11.22;94.88;100898.98;1708655;82;21446;-62
2022/10/27 01:27:33;;;;;;;7.17;4.60;;;;;;;11.24;94.85;100911.13;1706798;83;21023;-63
2022/10/27 01:30:21;;;;;;;9.83;4.70;;;;;;;11.24;94.71;100912.51;1699996;83;21074;-63
2022/10/27 01:33:13;;;;;;;11.43;5.15;;;;;;;11.22;94.80;100914.07;1710617;83;21475;-62
2022/10/27 01:35:56;;;;;;;7.85;4.95;;;;;;;11.21;94.81;100918.37;1712633;83;21099;-63
2022/10/27 01:38:35;;;;;;;9.43;4.80;;;;;;;11.21;94.64;100919.75;1708442;83;20999;-62
2022/10/27 01:41:09;;;;;;;8.03;4.62;;;;;;;11.19;94.56;100920.45;1711885;83;21447;-61
2022/10/27 01:43:39;;;;;;;13.50;5.37;;;;;;;11.18;94.59;100920.12;1690441;83;21050;-61
2022/10/27 01:46:09;;;;;;;11.18;4.80;;;;;;;11.19;94.60;100919.08;1713465;82;21071;-62
2022/10/27 01:48:38;;;;;;;9.40;4.80;;;;;;;11.16;94.47;100928.54;1692497;83;21036;-62
2022/10/27 01:51:08;;;;;;;10.90;4.87;;;;;;;11.16;94.44;100920.83;1711780;82;21103;-64
2022/10/27 01:53:45;;;;;;;10.38;5.00;;;;;;;11.12;94.34;100927.22;1712462;83;21023;-62
2022/10/27 01:56:37;;;;;;;7.62;4.55;;;;;;;11.11;94.44;100933.22;1711264;83;21070;-63
2022/10/27 01:59:48;;;;;;;8.28;4.60;;;;;;;11.10;94.42;100934.26;1679750;83;21024;-62
2022/10/27 02:02:28;;;;;;;8.25;4.53;;;;;;;11.08;94.30;100942.34;1700714;83;21480;-61
2022/10/27 02:05:05;;;;;;;10.32;4.78;;;;;;;11.04;94.19;100938.24;1708998;83;21164;-62
2022/10/27 02:07:55;;;;;;;10.00;4.58;;;;;;;11.02;94.17;100947.17;1712479;83;21090;-62
2022/10/27 02:10:42;;;;;;;9.68;4.58;;;;;;;11.00;94.22;100944.62;1717398;83;21489;-61
2022/10/27 02:13:10;;;;;;;9.53;4.45;;;;;;;10.98;94.01;100938.99;1712692;83;21070;-63
2022/10/27 02:15:45;;;;;;;9.30;4.50;;;;;;;10.94;94.05;100945.89;1708704;83;21031;-63
2022/10/27 02:18:18;;;;;;;10.25;4.55;;;;;;;10.91;94.12;100949.85;1717800;83;21038;-62
2022/10/27 02:20:50;;;;;;;7.03;4.42;;;;;;;10.91;94.28;100960.82;1717391;83;21552;-63
2022/10/27 02:23:20;;;;;;;7.12;3.98;;;;;;;10.92;94.31;100965.27;1715750;82;21102;-62
2022/10/27 02:26:33;;;;;;;9.33;4.53;;;;;;;10.89;94.31;100960.16;1715279;83;21051;-62
2022/10/27 02:29:17;;;;;;;9.63;4.85;;;;;;;10.86;94.33;100968.75;1718091;82;21564;-63
2022/10/27 02:31:49;;;;;;;8.30;4.90;;;;;;;10.83;94.47;100972.38;1716135;82;21486;-62
2022/10/27 02:34:18;;;;;;;7.70;4.10;;;;;;;10.80;94.50;100970.86;1716493;83;21019;-62
2022/10/27 02:36:47;;;;;;;8.68;4.37;;;;;;;10.79;94.67;100970.53;1715544;83;21054;-62
2022/10/27 02:39:16;;;;;;;9.28;4.20;;;;;;;10.83;94.80;100967.75;1717509;83;21058;-64
2022/10/27 02:41:46;;;;;;;8.08;4.35;;;;;;;10.84;94.75;100969.98;1714111;83;21075;-64
2022/10/27 02:44:16;;;;;;;9.28;4.65;;;;;;;10.81;94.78;100971.20;1706673;83;21074;-62
2022/10/27 02:46:46;;;;;;;8.35;4.10;;;;;;;10.81;94.92;100973.94;1715891;83;21046;-63
2022/10/27 02:49:18;;;;;;;7.40;3.95;;;;;;;10.84;94.92;100980.94;1706235;83;21058;-62
2022/10/27 02:51:47;;;;;;;10.58;4.17;;;;;;;10.87;94.91;100970.45;1718638;83;21446;-62
2022/10/27 02:54:16;;;;;;;10.35;4.70;;;;;;;10.89;94.86;100972.49;1715682;83;21110;-61
2022/10/27 02:56:46;;;;;;;7.08;4.55;;;;;;;10.91;94.82;100973.16;1718704;83;21022;-62
2022/10/27 02:59:16;;;;;;;7.85;4.03;;;;;;;10.92;94.67;100981.72;1716863;83;20991;-62
2022/10/27 03:01:45;;;;;;;8.98;3.95;;;;;;;10.94;94.55;100983.75;1716840;83;21070;-62
2022/10/27 03:04:15;;;;;;;9.28;4.70;;;;;;;10.96;94.53;100976.72;1718811;83;21030;-63
2022/10/27 03:06:45;;;;;;;9.60;5.03;;;;;;;10.95;94.48;100973.12;1716223;83;21067;-63
2022/10/27 03:09:14;;;;;;;11.38;5.15;;;;;;;10.95;94.35;100977.23;1716655;83;21050;-64
2022/10/27 03:11:45;;;;;;;7.10;4.03;;;;;;;10.93;94.35;100976.56;1717784;83;21021;-62
2022/10/27 03:14:14;;;;;;;8.65;4.45;;;;;;;10.93;94.35;100974.34;1715402;83;21106;-62
2022/10/27 03:16:44;;;;;;;7.50;4.10;;;;;;;10.92;94.32;100973.49;1716441;83;21037;-62
2022/10/27 03:19:13;;;;;;;11.57;4.72;;;;;;;10.93;94.35;100973.83;1716016;83;21050;-62
2022/10/27 03:21:42;;;;;;;6.92;4.30;;;;;;;10.93;94.32;100975.72;1715543;83;21015;-63
2022/10/27 03:24:11;;;;;;;7.00;4.45;;;;;;;10.92;94.32;100984.45;1723050;82;21066;-65
2022/10/27 03:26:43;;;;;;;10.72;4.87;;;;;;;10.94;94.30;100982.38;1724933;83;21101;-63
2022/10/27 03:29:14;;;;;;;11.03;4.60;;;;;;;10.94;94.27;100990.61;1722471;83;21447;-61
2022/10/27 03:31:43;;;;;;;12.47;4.90;;;;;;;10.91;94.23;100980.02;1724570;83;21071;-62
2022/10/27 03:34:13;;;;;;;6.67;4.30;;;;;;;10.92;94.34;100991.31;1726457;83;21106;-63
2022/10/27 03:36:45;;;;;;;5.62;3.70;;;;;;;10.93;94.35;100989.42;1715734;83;21074;-62
2022/10/27 03:39:14;;;;;;;7.55;4.45;;;;;;;10.94;94.29;100995.24;1729010;83;21034;-63
2022/10/27 03:41:44;;;;;;;11.97;4.28;;;;;;;10.94;94.25;100997.98;1713292;83;21023;-63
2022/10/27 03:44:13;;;;;;;7.65;4.17;;;;;;;10.94;94.33;100996.61;1727657;83;21252;-64
2022/10/27 03:46:41;;;;;;;7.17;4.75;;;;;;;10.95;94.34;100995.05;1719993;83;21050;-62
2022/10/27 03:49:12;;;;;;;8.30;4.72;;;;;;;10.93;94.34;100991.64;1720481;83;21007;-61
2022/10/27 03:51:41;;;;;;;8.98;4.35;;;;;;;10.94;94.32;100998.83;1723014;83;21066;-66
2022/10/27 03:54:12;;;;;;;10.03;5.10;;;;;;;10.95;94.39;101003.28;1723380;83;21486;-62
2022/10/27 03:56:42;;;;;;;10.05;4.87;;;;;;;10.98;94.45;101002.05;1717441;83;21027;-62
2022/10/27 03:59:11;;;;;;;11.43;5.60;;;;;;;10.99;94.48;101000.50;1718247;83;21454;-64
2022/10/27 04:01:42;;;;;;;8.08;4.47;;;;;;;10.99;94.33;101003.77;1725231;81;21054;-62
2022/10/27 04:04:12;;;;;;;12.85;5.20;;;;;;;10.99;94.39;101003.77;1718753;83;21070;-62
2022/10/27 04:06:42;;;;;;;10.38;5.10;;;;;;;11.00;94.33;101008.20;1722629;83;21071;-62
2022/10/27 04:09:11;;;;;;;10.68;5.25;;;;;;;10.99;94.38;101011.47;1721450;83;21022;-63
2022/10/27 04:11:41;;;;;;;12.13;5.85;;;;;;;10.97;94.46;101002.58;1715187;83;21035;-63
2022/10/27 04:14:13;;;;;;;11.70;5.28;;;;;;;10.97;94.49;101006.69;1718334;83;21091;-63
2022/10/27 04:16:43;;;;;;;10.95;5.37;;;;;;;10.99;94.56;101014.21;1720945;83;21043;-63
2022/10/27 04:19:13;;;;;;;14.20;5.37;;;;;;;11.00;94.52;101018.66;1728404;83;21014;-64
2022/10/27 04:21:41;;;;;;;10.45;5.80;;;;;;;11.01;94.53;101016.77;1723081;83;21136;-66
2022/10/27 04:24:12;;;;;;;14.68;5.70;;;;;;;11.01;94.59;101016.25;1716316;83;21022;-62
2022/10/27 04:26:42;;;;;;;11.70;5.53;;;;;;;11.02;94.64;101015.73;1708066;83;21090;-63
2022/10/27 04:29:11;;;;;;;11.45;5.37;;;;;;;11.05;94.65;101025.84;1711885;83;21027;-62
2022/10/27 04:31:42;;;;;;;11.78;6.08;;;;;;;11.03;94.43;101018.28;1709233;83;21511;-64
2022/10/27 04:34:11;;;;;;;8.10;5.45;;;;;;;11.01;94.36;101025.84;1716487;83;21093;-62
2022/10/27 04:36:40;;;;;;;12.10;5.55;;;;;;;10.99;94.44;101025.18;1710666;83;21058;-63
2022/10/27 04:39:12;;;;;;;11.70;5.62;;;;;;;11.00;94.56;101023.29;1712812;83;21145;-62
2022/10/27 04:41:41;;;;;;;9.08;4.90;;;;;;;11.01;94.58;101029.11;1710506;83;21031;-62
2022/10/27 04:44:10;;;;;;;12.30;5.55;;;;;;;11.05;94.61;101029.07;1713284;83;21027;-63
2022/10/27 04:46:39;;;;;;;11.03;5.15;;;;;;;11.07;94.54;101029.25;1713658;83;21054;-63
2022/10/27 04:49:10;;;;;;;12.63;5.33;;;;;;;11.06;94.44;101028.06;1709119;83;21444;-64
2022/10/27 04:51:41;;;;;;;9.03;5.40;;;;;;;11.07;94.43;101041.59;1615527;87;21506;-62
2022/10/27 04:54:11;;;;;;;13.98;5.67;;;;;;;11.08;94.30;101038.33;1627483;87;21179;-63
2022/10/27 04:56:40;;;;;;;13.70;5.65;;;;;;;11.08;94.21;101041.92;1619771;88;21194;-63
2022/10/27 04:59:09;;;;;;;15.50;5.45;;;;;;;11.09;94.21;101044.15;1626728;87;21019;-62
2022/10/27 05:01:39;;;;;;;8.98;4.72;;;;;;;11.08;94.10;101052.89;1626995;87;21553;-63
2022/10/27 05:04:08;;;;;;;10.20;5.22;;;;;;;11.07;94.08;101048.45;1598491;87;21138;-63
2022/10/27 05:06:37;;;;;;;8.80;4.72;;;;;;;11.06;93.94;101050.86;1619536;87;21046;-62
2022/10/27 05:09:09;;;;;;;8.83;5.60;;;;;;;11.05;93.87;101060.61;1583483;87;21063;-65
2022/10/27 05:11:40;;;;;;;11.30;5.20;;;;;;;11.04;93.80;101059.75;1649753;86;21095;-61
2022/10/27 05:14:11;;;;;;;11.73;5.42;;;;;;;11.05;93.73;101061.49;1714207;83;21540;-63
2022/10/27 05:16:41;;;;;;;12.90;6.00;;;;;;;11.04;93.74;101062.50;1708829;83;21091;-62
2022/10/27 05:19:09;;;;;;;12.20;5.40;;;;;;;11.07;93.75;101062.68;1707742;83;21558;-63
2022/10/27 05:21:39;;;;;;;8.78;5.53;;;;;;;11.08;93.64;101065.75;1712166;83;21059;-62
2022/10/27 05:24:09;;;;;;;13.38;6.05;;;;;;;11.10;93.68;101065.91;1711773;83;21039;-64
2022/10/27 05:26:38;;;;;;;14.33;6.05;;;;;;;11.10;93.64;101071.39;1723546;83;21085;-62
2022/10/27 05:29:07;;;;;;;12.68;5.47;;;;;;;11.12;93.66;101073.95;1715668;83;21106;-62
2022/10/27 05:31:37;;;;;;;7.83;4.45;;;;;;;11.14;93.49;101072.39;1719687;83;21504;-64
2022/10/27 05:34:06;;;;;;;10.15;5.08;;;;;;;11.11;93.05;101071.72;1720092;83;21062;-64
2022/10/27 05:36:35;;;;;;;11.50;5.35;;;;;;;11.09;93.02;101074.31;1718551;83;21086;-63
2022/10/27 05:39:07;;;;;;;12.10;5.70;;;;;;;11.05;92.59;101082.06;1720369;83;21023;-63
2022/10/27 05:41:36;;;;;;;11.22;5.35;;;;;;;11.03;92.76;101090.11;1726741;83;21003;-63
2022/10/27 05:44:06;;;;;;;11.30;4.83;;;;;;;11.02;92.69;101093.37;1722839;83;21430;-64
2022/10/27 05:46:35;;;;;;;13.15;5.20;;;;;;;11.02;92.70;101094.73;1720490;83;20999;-64
2022/10/27 05:49:05;;;;;;;10.88;5.83;;;;;;;11.01;92.62;101094.92;1722620;83;21474;-64
2022/10/27 05:51:35;;;;;;;8.25;5.12;;;;;;;10.99;92.52;101099.73;1722963;83;21766;-62
2022/10/27 05:54:04;;;;;;;15.08;5.87;;;;;;;10.97;92.50;101102.66;1728564;82;21042;-65
2022/10/27 05:56:33;;;;;;;9.33;4.90;;;;;;;10.99;92.56;101099.73;1705753;83;21039;-62
2022/10/27 05:59:02;;;;;;;11.15;5.20;;;;;;;11.03;92.57;101106.56;1709528;84;21059;-63
2022/10/27 06:01:32;;;;;;;11.68;5.47;;;;;;;11.04;92.32;101098.15;1708124;84;21116;-64
2022/10/27 06:04:01;;;;;;;8.25;4.83;;;;;;;11.00;92.00;101103.67;1709723;84;21513;-62
2022/10/27 06:06:31;;;;;;;12.35;5.08;;;;;;;10.98;91.89;101107.11;1708124;83;21075;-63
2022/10/27 06:08:59;;;;;;;8.83;4.70;;;;;;;10.94;91.73;101112.63;1710193;84;21454;-62
2022/10/27 06:11:29;;;;;;;11.00;5.33;;;;;;;10.96;91.84;101113.81;1709374;84;21082;-63
2022/10/27 06:13:58;;;;;;;12.95;5.25;;;;;;;10.97;91.77;101121.00;1697237;84;21478;-62
2022/10/27 06:16:28;;;;;;;10.18;4.60;;;;;;;10.99;91.75;101121.16;1705576;84;21024;-63
2022/10/27 06:18:58;;;;;;;12.98;6.17;;;;;;;11.01;91.66;101123.20;1708349;84;21533;-62
2022/10/27 06:21:29;;;;;;;11.73;5.28;;;;;;;11.02;91.30;101130.91;1713003;84;21039;-61
2022/10/27 06:23:58;;;;;;;10.50;5.35;;;;;;;11.03;91.25;101137.58;1712125;82;21090;-63
2022/10/27 06:26:27;;;;;;;11.48;5.50;;;;;;;11.06;91.31;101139.98;1703545;84;21443;-64
2022/10/27 06:28:57;;;;;;;12.20;6.08;;;;;;;11.08;91.29;101137.91;1702613;84;21021;-64
2022/10/27 06:31:27;;;;;;;11.57;6.03;;;;;;;11.10;91.23;101135.84;1700812;84;21067;-63
2022/10/27 06:33:56;;;;;;;16.32;6.50;;;;;;;11.11;91.08;101140.81;1701697;84;21036;-62
2022/10/27 06:36:26;;;;;;;11.68;6.78;;;;;;;11.08;90.98;101137.91;1701498;84;21079;-64
2022/10/27 06:38:56;;;;;;;16.65;6.50;;;;;;;11.08;90.92;101137.06;1699996;84;21032;-62
2022/10/27 06:41:25;;;;;;;14.95;6.47;;;;;;;11.03;90.81;101136.20;1690554;84;21508;-62
2022/10/27 06:43:55;;;;;;;10.40;5.78;;;;;;;11.03;90.91;101136.72;1701077;84;21079;-62
2022/10/27 06:46:24;;;;;;;10.85;6.65;;;;;;;11.04;90.70;101138.43;1702169;83;21130;-63
2022/10/27 06:48:54;;;;;;;10.63;5.97;;;;;;;10.99;90.67;101138.98;1700666;84;21066;-62
2022/10/27 06:51:24;;;;;;;9.63;5.90;;;;;;;11.00;90.79;101150.28;1700367;84;21436;-62
2022/10/27 06:53:54;;;;;;;13.75;6.30;;;;;;;11.02;90.72;101150.95;1701169;84;21068;-62
2022/10/27 06:56:23;;;;;;;13.35;6.17;;;;;;;11.01;90.69;101156.10;1699939;84;21514;-64
2022/10/27 06:58:53;;;;;;;8.88;4.90;;;;;;;11.02;90.45;101163.30;1699832;84;21131;-62
2022/10/27 07:01:23;;;;;;;10.95;6.30;;;;;;;11.03;90.39;101160.89;1703006;84;21463;-63
2022/10/27 07:03:52;;;;;;;13.68;6.33;;;;;;;11.01;90.22;101162.11;1700562;83;21485;-64
2022/10/27 07:06:21;;;;;;;14.68;5.83;;;;;;;11.02;90.36;101156.95;1699736;84;21114;-62
2022/10/27 07:08:51;;;;;;;14.78;5.95;;;;;;;11.03;90.31;101162.26;1690465;84;21535;-61
2022/10/27 07:11:20;;;;;;;12.75;5.17;;;;;;;11.04;90.23;101158.48;1702451;84;21082;-63
2022/10/27 07:13:50;;;;;;;12.65;6.35;;;;;;;11.06;90.12;101158.33;1700536;84;21095;-62
2022/10/27 07:16:20;;;;;;;8.40;5.10;;;;;;;11.06;90.15;101159.70;1703540;84;21043;-64
2022/10/27 07:18:49;;;;;;;14.70;6.70;;;;;;;11.04;89.98;101165.34;1700583;84;21086;-63
2022/10/27 07:21:19;;;;;;;10.85;6.15;;;;;;;11.06;89.87;101161.93;1700647;84;21075;-63
2022/10/27 07:23:49;;;;;;;11.83;5.95;;;;;;;11.06;90.01;101170.16;1700258;84;21043;-63
2022/10/27 07:26:18;;;;;;;9.15;5.75;;;;;;;11.11;89.98;101163.61;1699771;84;21095;-63
2022/10/27 07:28:47;;;;;;;12.95;6.58;;;;;;;11.14;89.81;101170.62;1701813;84;21028;-62
2022/10/27 07:31:17;;;;;;;10.13;5.30;;;;;;;11.14;89.83;101165.64;1698824;84;21448;-65
2022/10/27 07:33:46;;;;;;;13.15;5.20;;;;;;;11.18;89.97;101174.70;1699037;84;21114;-64
2022/10/27 07:36:16;;;;;;;11.68;5.03;;;;;;;11.21;89.64;101174.33;1698819;83;21064;-64
2022/10/27 07:38:45;;;;;;;12.98;5.58;;;;;;;11.21;89.34;101178.45;1701868;84;21435;-62
2022/10/27 07:41:16;;;;;;;10.72;5.20;;;;;;;11.23;89.31;101181.01;1700286;84;21028;-63
2022/10/27 07:43:47;;;;;;;10.68;5.00;;;;;;;11.26;89.46;101189.73;1699286;84;21068;-64
2022/10/27 07:46:17;;;;;;;11.60;5.35;;;;;;;11.28;89.25;101182.69;1703016;83;21060;-63
2022/10/27 07:48:46;;;;;;;11.20;5.08;;;;;;;11.29;89.04;101183.02;1701045;84;21019;-63
2022/10/27 07:51:19;;;;;;;10.30;5.80;;;;;;;11.29;88.79;101176.16;1699112;83;21106;-65
2022/10/27 07:53:50;;;;;;;10.88;5.47;;;;;;;11.29;88.98;101182.50;1697539;84;21502;-63
2022/10/27 07:56:21;;;;;;;10.18;5.35;;;;;;;11.31;88.83;101183.69;1699445;84;21083;-64
2022/10/27 07:58:51;;;;;;;11.78;7.05;;;;;;;11.31;88.79;101185.91;1703082;84;21051;-66
2022/10/27 08:01:22;;;;;;;15.80;8.23;;;;;;;11.35;88.53;101186.40;1700422;84;21028;-65
2022/10/27 08:03:52;;;;;;;11.30;6.42;;;;;;;11.37;88.52;101180.21;1655127;86;21517;-66
2022/10/27 08:06:22;;;;;;;10.63;6.58;;;;;;;11.43;88.69;101180.84;1681962;85;21459;-66
2022/10/27 08:08:52;;;;;;;12.58;6.55;;;;;;;11.48;88.52;101182.52;1659516;85;21034;-67
2022/10/27 08:11:23;;;;;;;11.63;5.72;;;;;;;11.54;88.59;101186.41;1676881;85;21475;-66
2022/10/27 08:13:55;;;;;;;11.95;5.47;;;;;;;11.65;88.64;101195.58;1676866;85;21502;-66
2022/10/27 08:16:25;;;;;;;8.70;5.20;;;;;;;11.75;88.42;101194.83;1676024;85;21027;-66
2022/10/27 08:18:56;;;;;;;9.23;5.58;;;;;;;11.79;87.97;101193.45;1573260;89;21407;-66
2022/10/27 08:21:25;;;;;;;12.43;5.75;;;;;;;11.83;87.67;101196.16;1622770;88;21534;-68
2022/10/27 08:23:55;;;;;;;11.83;4.87;;;;;;;11.87;87.52;101198.86;1607148;87;21046;-67
2022/10/27 08:26:24;;;;;;;11.43;5.30;;;;;;;11.93;87.34;101200.86;1614346;87;21101;-66
2022/10/27 08:28:53;;;;;;;12.03;5.62;;;;;;;11.97;87.07;101209.58;1591660;89;21118;-64
2022/10/27 08:31:23;;;;;;;13.25;5.78;;;;;;;12.02;86.98;101211.25;1615205;88;21101;-67
2022/10/27 08:33:52;;;;;;;12.03;5.97;;;;;;;12.06;86.63;101210.68;1608996;87;21062;-68
2022/10/27 08:36:21;;;;;;;9.98;5.55;;;;;;;12.05;86.14;101208.98;1616403;85;21046;-65
2022/10/27 08:38:51;;;;;;;16.35;6.42;;;;;;;12.08;85.98;101217.88;1703156;84;21027;-65
2022/10/27 08:41:43;;;;;;;11.35;6.10;;;;;;;12.12;85.85;101215.09;1715997;83;21027;-65
2022/10/27 08:44:23;;;;;;;13.00;5.85;;;;;;;12.14;85.75;101216.61;1712399;83;21015;-66
2022/10/27 08:46:55;;;;;;;13.32;5.78;;;;;;;12.17;85.65;101218.98;1709939;83;21003;-66
2022/10/27 08:49:42;;;;;;;9.58;4.95;;;;;;;12.19;85.36;101223.77;1708145;83;21027;-69
2022/10/27 08:52:33;;;;;;;14.35;5.97;;;;;;;12.20;85.10;101224.10;1712674;83;21477;-66
2022/10/27 08:55:26;;;;;;;14.47;5.67;;;;;;;12.23;85.12;101229.22;1708852;83;21015;-65
2022/10/27 08:58:02;;;;;;;13.50;5.60;;;;;;;12.27;85.22;101226.42;1711787;83;21483;-65
2022/10/27 09:00:49;;;;;;;10.10;5.33;;;;;;;12.35;85.20;101225.48;1702325;83;21478;-66
2022/10/27 09:03:32;;;;;;;11.25;5.12;;;;;;;12.42;85.06;101225.61;1709568;83;21054;-68
2022/10/27 09:06:30;;;;;;;11.40;5.50;;;;;;;12.46;84.61;101232.43;1713095;83;21443;-67
2022/10/27 09:09:26;;;;;;;;;;;;;;;12.50;84.25;101232.38;1685330;84;20998;-67
2022/10/27 09:12:27;;;;;;;10.45;5.28;;;;;;;12.51;83.84;101224.47;1679156;84;20161;-65
2022/10/27 09:15:29;;;;;;;13.58;5.47;;;;;;;12.47;83.37;101225.89;1671754;85;21035;-69
2022/10/27 09:18:10;;;;;;;9.43;4.20;;;;;;;12.47;83.56;101233.61;1669745;85;21066;-69
2022/10/27 09:20:48;;;;;;;7.40;3.90;;;;;;;12.50;83.07;101232.38;1678706;84;21487;-66
2022/10/27 09:23:29;;;;;;;7.80;4.83;;;;;;;12.47;82.79;101224.52;1685173;84;21068;-68
2022/10/27 09:25:58;;;;;;;9.18;4.12;;;;;;;12.49;83.26;101234.28;1681534;84;21158;-67
2022/10/27 09:28:48;;;;;;;9.48;4.42;;;;;;;12.53;83.04;101236.98;1681866;85;21090;-69
2022/10/27 09:31:20;;;;;;;7.60;4.17;;;;;;;12.52;82.09;101242.66;1682162;84;21071;-68
2022/10/27 09:33:59;;;;;;;6.35;3.40;;;;;;;12.49;82.01;101238.41;1679847;85;21034;-69
2022/10/27 09:36:29;;;;;;;11.90;4.67;;;;;;;12.51;81.85;101238.21;1700058;84;21084;-69
2022/10/27 09:38:59;;;;;;;6.22;4.00;;;;;;;12.51;81.93;101239.59;1638213;85;21052;-69
2022/10/27 09:41:29;;;;;;;8.40;4.42;;;;;;;12.55;82.14;101239.53;1624462;88;21079;-68
2022/10/27 09:43:59;;;;;;;10.28;4.35;;;;;;;12.61;81.95;101240.15;1620851;88;21031;-69
2022/10/27 09:46:28;;;;;;;7.83;3.77;;;;;;;12.62;81.77;101242.71;1681095;85;21122;-70
2022/10/27 09:49:07;;;;;;;9.50;4.12;;;;;;;12.65;81.57;101241.48;1675283;85;21075;-68
2022/10/27 09:51:47;;;;;;;10.88;4.33;;;;;;;12.67;81.20;101240.77;1653443;85;21110;-70
2022/10/27 09:54:35;;;;;;;11.45;4.35;;;;;;;12.68;81.34;101235.07;1681045;85;21019;-67
2022/10/27 09:57:10;;;;;;;;;;;;;;;12.69;81.28;101229.91;1628882;87;21022;-68
2022/10/27 09:59:40;;;;;;;9.23;4.10;;;;;;;12.73;81.01;101227.63;1606824;88;20182;-68
2022/10/27 10:02:32;;;;;;;7.78;3.62;;;;;;;12.71;80.63;101224.22;1617506;88;21103;-68
2022/10/27 10:05:09;;;;;;;13.22;4.72;;;;;;;12.73;80.60;101231.75;1712055;83;21478;-68
2022/10/27 10:07:42;;;;;;;8.73;3.87;;;;;;;12.79;80.57;101232.36;1716995;83;21078;-67
2022/10/27 10:10:28;;;;;;;8.75;4.28;;;;;;;12.83;80.44;101225.95;1721896;83;21070;-67
2022/10/27 10:13:13;;;;;;;10.98;3.98;;;;;;;12.87;80.08;101232.77;1708934;83;21054;-67
2022/10/27 10:15:45;;;;;;;8.48;3.95;;;;;;;12.87;79.60;101231.39;1722512;83;21074;-69
2022/10/27 10:18:26;;;;;;;6.40;3.60;;;;;;;12.89;79.54;101238.94;1673796;83;21535;-69
2022/10/27 10:21:01;;;;;;;10.85;3.70;;;;;;;12.91;79.35;101236.31;1722210;83;21118;-69
2022/10/27 10:23:36;;;;;;;10.90;4.83;;;;;;;12.93;79.16;101245.23;1721825;82;21047;-68
2022/10/27 10:26:10;;;;;;;8.70;3.90;;;;;;;12.97;79.28;101234.69;1712158;83;21078;-69
2022/10/27 10:28:41;;;;;;;7.40;3.92;;;;;;;13.01;79.09;101240.17;1689554;83;21094;-70
2022/10/27 10:31:14;;;;;;;8.05;4.20;;;;;;;13.04;78.71;101243.06;1717957;83;21436;-68
2022/10/27 10:33:49;;;;;;;9.43;3.92;;;;;;;13.04;78.50;101241.16;1717421;83;21023;-68
2022/10/27 10:36:35;;;;;;;9.38;4.28;;;;;;;13.07;78.09;101238.55;1712098;83;21050;-68
2022/10/27 10:39:23;;;;;;;9.03;3.72;;;;;;;13.08;78.09;101229.25;1717409;83;21058;-67
2022/10/27 10:42:14;;;;;;;7.12;4.20;;;;;;;13.10;77.60;101229.91;1691401;83;21046;-69
2022/10/27 10:44:43;;;;;;;11.50;4.03;;;;;;;13.06;77.07;101231.34;1721266;83;21066;-68
2022/10/27 10:47:25;;;;;;;9.05;4.00;;;;;;;13.03;77.17;101226.22;1656724;86;21110;-68
2022/10/27 10:49:58;;;;;;;8.68;3.33;;;;;;;13.01;77.38;101224.52;1656009;86;21030;-67
2022/10/27 10:52:34;;;;;;;8.70;4.05;;;;;;;13.03;77.14;101219.34;1657490;86;21178;-70
2022/10/27 10:55:09;;;;;;;;;;;;;;;13.06;77.23;101218.95;1659674;86;21079;-67
2022/10/27 10:57:41;;;;;;;8.00;4.70;;;;;;;13.11;77.37;101226.11;1640459;86;20212;-67
2022/10/27 11:00:18;;;;;;;6.92;4.35;;;;;;;13.15;77.49;101223.30;1655235;86;21110;-68
2022/10/27 11:03:00;;;;;;;8.83;3.98;;;;;;;13.20;76.80;101213.96;1646904;86;21536;-67
2022/10/27 11:05:34;;;;;;;9.60;3.70;;;;;;;13.23;76.34;101230.08;1656503;86;21084;-67
2022/10/27 11:08:04;;;;;;;13.05;5.50;;;;;;;13.23;76.09;101226.81;1656236;86;21458;-70
2022/10/27 11:10:36;;;;;;;10.40;4.20;;;;;;;13.27;76.06;101221.77;1656297;86;21074;-66
2022/10/27 11:13:22;;;;;;;11.60;4.55;;;;;;;13.33;76.02;101222.36;1711261;82;21292;-67
2022/10/27 11:16:01;;;;;;;8.78;3.75;;;;;;;13.38;76.15;101211.61;1726034;83;21102;-69
2022/10/27 11:18:54;;;;;;;7.90;3.15;;;;;;;13.42;75.27;101214.30;1721610;83;21512;-68
2022/10/27 11:21:37;;;;;;;9.68;4.15;;;;;;;13.43;75.33;101216.00;1719747;83;21094;-67
2022/10/27 11:24:23;;;;;;;10.35;3.62;;;;;;;13.46;74.75;101212.01;1719222;83;21063;-69
2022/10/27 11:27:15;;;;;;;5.92;3.12;;;;;;;13.47;74.71;101211.81;1724388;82;21631;-68
2022/10/27 11:30:02;;;;;;;6.15;3.37;;;;;;;13.52;74.62;101214.83;1715635;83;21543;-69
2022/10/27 11:32:56;;;;;;;10.20;3.77;;;;;;;13.52;73.79;101224.46;1718172;83;21552;-67
2022/10/27 11:35:55;;;;;;;6.87;3.40;;;;;;;13.52;73.78;101228.59;1708310;83;21474;-69
2022/10/27 11:39:00;;;;;;;8.23;3.80;;;;;;;13.53;73.84;101230.30;1714046;83;21031;-69
2022/10/27 11:41:50;;;;;;;9.78;4.00;;;;;;;13.54;73.97;101237.50;1678317;83;21550;-67
2022/10/27 11:44:35;;;;;;;7.85;3.75;;;;;;;13.56;74.20;101242.30;1698534;83;21059;-68
2022/10/27 11:47:26;;;;;;;11.33;3.80;;;;;;;13.59;74.15;101239.14;1716638;83;21078;-69
2022/10/27 11:50:05;;;;;;;9.30;3.42;;;;;;;13.59;73.06;101239.67;1717444;83;21486;-68
2022/10/27 11:52:44;;;;;;;6.75;3.55;;;;;;;13.58;73.00;101235.21;1706426;83;21094;-68
2022/10/27 11:55:19;;;;;;;5.80;3.40;;;;;;;13.58;72.85;101241.57;1716647;83;21133;-68